Time;durP1;ratioP1;P1;durP2;ratioP2;P2;SDS_P1;SDS_P2;PMS_P1;PMS_P2;Temp;Humidity;BMP_temperature;BMP_pressure;BME280_temperature;BME280_humidity;BME280_pressure;Samples;Min_cycle;Max_cycle;Signal;HPM_P1;HPM_P2
2023/08/11 00:01:29;;;;;;;8.88;2.10;;;13.20;99.90;;;;;;5020960;28;20056;-66
2023/08/11 00:03:57;;;;;;;6.00;1.10;;;13.30;99.90;;;;;;5021252;28;20114;-64
2023/08/11 00:06:25;;;;;;;11.10;2.03;;;13.30;99.90;;;;;;5020200;28;20053;-62
2023/08/11 00:08:55;;;;;;;9.57;2.45;;;13.30;99.90;;;;;;5021796;28;20474;-65
2023/08/11 00:11:22;;;;;;;5.65;2.28;;;13.30;99.90;;;;;;5016496;28;20033;-69
2023/08/11 00:13:49;;;;;;;4.38;1.55;;;13.30;99.90;;;;;;5014497;28;20048;-63
2023/08/11 00:16:16;;;;;;;3.60;1.48;;;13.30;99.90;;;;;;5020589;28;20041;-62
2023/08/11 00:18:43;;;;;;;2.47;1.23;;;13.30;99.90;;;;;;5018438;28;20127;-65
2023/08/11 00:21:12;;;;;;;5.80;2.70;;;13.30;99.90;;;;;;5022413;28;20045;-65
2023/08/11 00:23:42;;;;;;;4.20;1.50;;;13.30;99.90;;;;;;5014032;28;20144;-65
2023/08/11 00:26:10;;;;;;;3.47;2.13;;;13.30;99.90;;;;;;5021664;28;20388;-66
2023/08/11 00:28:38;;;;;;;3.58;1.98;;;13.30;99.90;;;;;;5021439;28;20079;-62
2023/08/11 00:31:05;;;;;;;2.35;0.90;;;13.30;99.90;;;;;;5021066;28;20057;-67
2023/08/11 00:33:32;;;;;;;2.53;1.08;;;13.30;99.90;;;;;;5028807;28;20056;-63
2023/08/11 00:35:59;;;;;;;4.28;1.40;;;13.30;99.90;;;;;;5023928;28;20053;-64
2023/08/11 00:38:36;;;;;;;2.10;1.50;;;13.30;99.90;;;;;;5024333;28;20041;-63
2023/08/11 00:41:05;;;;;;;4.22;1.85;;;13.30;99.90;;;;;;5022897;28;20122;-67
2023/08/11 00:43:32;;;;;;;7.68;2.65;;;13.30;99.90;;;;;;5021296;28;20069;-66
2023/08/11 00:46:06;;;;;;;6.18;2.10;;;13.30;99.90;;;;;;5025361;28;20050;-63
2023/08/11 00:48:34;;;;;;;4.55;1.35;;;13.30;99.90;;;;;;5021686;28;20549;-63
2023/08/11 00:51:02;;;;;;;3.90;1.10;;;13.30;99.90;;;;;;5026182;28;20084;-66
2023/08/11 00:53:29;;;;;;;7.22;2.30;;;13.30;99.90;;;;;;5017675;28;20061;-66
2023/08/11 00:55:56;;;;;;;6.70;1.40;;;13.30;99.90;;;;;;5021913;28;20432;-64
2023/08/11 00:58:23;;;;;;;7.60;1.63;;;13.30;99.90;;;;;;5025582;28;20052;-68
2023/08/11 01:00:52;;;;;;;3.03;1.20;;;13.30;99.90;;;;;;5023960;28;20048;-67
2023/08/11 01:03:19;;;;;;;4.13;1.25;;;13.30;99.90;;;;;;5026210;28;20053;-63
2023/08/11 01:06:23;;;;;;;5.75;1.88;;;13.20;99.90;;;;;;5037483;28;20052;-66
2023/08/11 01:09:15;;;;;;;6.35;1.75;;;13.20;99.90;;;;;;5003491;28;20057;-62
2023/08/11 01:12:02;;;;;;;4.75;1.45;;;13.30;99.90;;;;;;5021209;28;20137;-64
2023/08/11 01:14:53;;;;;;;9.65;1.50;;;13.30;99.90;;;;;;5039091;28;20111;-66
2023/08/11 01:17:21;;;;;;;6.93;1.48;;;13.20;99.90;;;;;;5021280;28;20037;-67
2023/08/11 01:19:49;;;;;;;4.18;1.55;;;13.20;99.90;;;;;;5023236;28;20092;-63
2023/08/11 01:22:21;;;;;;;5.13;1.40;;;13.20;99.90;;;;;;5020757;28;20416;-63
2023/08/11 01:24:48;;;;;;;5.00;1.67;;;13.20;99.90;;;;;;5039117;28;20087;-63
2023/08/11 01:27:15;;;;;;;6.10;1.77;;;13.20;99.90;;;;;;5022747;28;20140;-63
2023/08/11 01:29:42;;;;;;;5.28;1.63;;;13.20;99.90;;;;;;5023612;28;20069;-65
2023/08/11 01:32:09;;;;;;;7.80;3.15;;;13.20;99.90;;;;;;5027391;28;20045;-68
2023/08/11 01:34:36;;;;;;;6.65;1.77;;;13.20;99.90;;;;;;5018497;28;20092;-62
2023/08/11 01:37:03;;;;;;;4.20;1.45;;;13.20;99.90;;;;;;5024826;28;20442;-63
2023/08/11 01:39:31;;;;;;;4.78;2.08;;;13.20;99.90;;;;;;5018959;28;20057;-64
2023/08/11 01:41:58;;;;;;;6.15;1.23;;;13.20;99.90;;;;;;5018368;28;20407;-65
2023/08/11 01:44:26;;;;;;;4.47;1.52;;;13.20;99.90;;;;;;5018354;28;20404;-63
2023/08/11 01:46:56;;;;;;;5.20;1.60;;;13.20;99.90;;;;;;5021991;28;20123;-67
2023/08/11 01:49:25;;;;;;;7.20;1.75;;;13.20;99.90;;;;;;5021637;28;20103;-63
2023/08/11 01:51:53;;;;;;;5.78;3.47;;;13.20;99.90;;;;;;5023783;28;20056;-67
2023/08/11 01:54:20;;;;;;;5.60;1.70;;;13.10;99.90;;;;;;5024070;28;20045;-63
2023/08/11 01:56:47;;;;;;;5.07;1.10;;;13.10;99.90;;;;;;5019899;28;20717;-64
2023/08/11 01:59:18;;;;;;;1.38;0.88;;;13.10;99.90;;;;;;5031517;28;20116;-64
2023/08/11 02:01:44;;;;;;;5.28;1.35;;;13.10;99.90;;;;;;5019532;28;21536;-64
2023/08/11 02:04:12;;;;;;;5.38;0.98;;;13.10;99.90;;;;;;5018744;28;20469;-63
2023/08/11 02:06:39;;;;;;;2.40;1.00;;;13.10;99.90;;;;;;5024897;28;20049;-65
2023/08/11 02:09:11;;;;;;;18.25;1.83;;;13.10;99.90;;;;;;5019743;28;20065;-67
2023/08/11 02:11:39;;;;;;;7.93;1.17;;;13.10;99.90;;;;;;5018906;28;20045;-64
2023/08/11 02:14:06;;;;;;;6.45;1.73;;;13.10;99.90;;;;;;5019475;28;20048;-64
2023/08/11 02:16:33;;;;;;;4.72;1.25;;;13.10;99.90;;;;;;5022048;28;20153;-67
2023/08/11 02:19:00;;;;;;;4.63;1.83;;;13.10;99.90;;;;;;5023325;28;20053;-63
2023/08/11 02:21:28;;;;;;;4.55;1.50;;;13.00;99.90;;;;;;5018914;28;20377;-65
2023/08/11 02:23:55;;;;;;;10.80;1.67;;;13.00;99.90;;;;;;5021446;28;20048;-69
2023/08/11 02:26:22;;;;;;;10.77;1.55;;;13.00;99.90;;;;;;5020197;28;20574;-63
2023/08/11 02:28:49;;;;;;;4.80;1.05;;;13.00;99.90;;;;;;5023988;28;20400;-62
2023/08/11 02:31:17;;;;;;;4.50;1.60;;;13.00;99.90;;;;;;5011718;28;20059;-65
2023/08/11 02:33:45;;;;;;;6.80;1.90;;;13.00;99.90;;;;;;5021592;28;20073;-66
2023/08/11 02:36:14;;;;;;;5.50;1.95;;;13.00;99.90;;;;;;5019063;28;20582;-67
2023/08/11 02:38:41;;;;;;;4.40;1.95;;;13.00;99.90;;;;;;5023012;28;20068;-62
2023/08/11 02:41:08;;;;;;;5.75;1.10;;;13.00;99.90;;;;;;5017930;28;20046;-65
2023/08/11 02:43:36;;;;;;;3.25;0.95;;;13.00;99.90;;;;;;5023970;28;20037;-67
2023/08/11 02:46:07;;;;;;;4.45;1.90;;;13.00;99.90;;;;;;5018971;28;20069;-67
2023/08/11 02:48:34;;;;;;;10.93;2.13;;;12.90;99.90;;;;;;5020330;28;20048;-66
2023/08/11 02:51:03;;;;;;;5.95;1.63;;;13.00;99.90;;;;;;5019611;28;20094;-64
2023/08/11 02:53:30;;;;;;;2.35;0.98;;;13.00;99.90;;;;;;5018125;28;20057;-65
2023/08/11 02:56:00;;;;;;;3.47;1.00;;;12.90;99.90;;;;;;5018879;28;20038;-63
2023/08/11 02:58:28;;;;;;;9.18;1.83;;;12.90;99.90;;;;;;5021169;28;20128;-63
2023/08/11 03:00:57;;;;;;;3.05;1.30;;;13.00;99.90;;;;;;5021418;28;20735;-65
2023/08/11 03:03:25;;;;;;;5.03;1.40;;;13.00;99.90;;;;;;5033429;28;20057;-69
2023/08/11 03:05:52;;;;;;;3.92;1.58;;;13.00;99.90;;;;;;5023445;28;20042;-67
2023/08/11 03:08:19;;;;;;;4.05;1.25;;;13.00;99.90;;;;;;5016165;28;20058;-67
2023/08/11 03:10:46;;;;;;;5.63;2.50;;;13.00;99.90;;;;;;5020553;28;20038;-66
2023/08/11 03:13:28;;;;;;;11.45;3.55;;;13.00;99.90;;;;;;5036915;28;20404;-63
2023/08/11 03:15:55;;;;;;;7.05;1.92;;;12.90;99.90;;;;;;5019890;28;20143;-63
2023/08/11 03:18:23;;;;;;;4.70;1.17;;;13.00;99.90;;;;;;5035073;28;20049;-66
2023/08/11 03:20:50;;;;;;;2.88;1.17;;;13.00;99.90;;;;;;5035016;28;20041;-65
2023/08/11 03:23:20;;;;;;;;;;;13.00;99.90;;;;;;5016326;28;20462;-65
2023/08/11 03:25:47;;;;;;;4.25;1.30;;;13.00;99.90;;;;;;5021322;28;20401;-64
2023/08/11 03:28:18;;;;;;;2.78;1.50;;;13.00;99.90;;;;;;5033439;28;20060;-63
2023/08/11 03:30:45;;;;;;;3.25;1.20;;;13.00;99.90;;;;;;5023641;28;20558;-66
2023/08/11 03:33:12;;;;;;;8.32;1.33;;;13.00;99.90;;;;;;5021272;28;20052;-68
2023/08/11 03:35:50;;;;;;;7.75;2.10;;;13.00;99.90;;;;;;5019840;28;20132;-64
2023/08/11 03:38:17;;;;;;;7.43;1.70;;;12.90;99.90;;;;;;5019658;28;20049;-64
2023/08/11 03:40:43;;;;;;;4.13;1.33;;;13.00;99.90;;;;;;5019736;28;20076;-67
2023/08/11 03:43:11;;;;;;;7.53;2.25;;;12.90;99.90;;;;;;5019236;28;20129;-65
2023/08/11 03:45:38;;;;;;;7.05;1.80;;;12.90;99.90;;;;;;5034348;28;20060;-63
2023/08/11 03:48:10;;;;;;;8.98;1.92;;;12.90;99.90;;;;;;5032427;28;20484;-69
2023/08/11 03:50:37;;;;;;;4.95;2.78;;;12.90;99.90;;;;;;5020149;28;20046;-63
2023/08/11 03:53:04;;;;;;;9.40;1.35;;;12.90;99.90;;;;;;5020971;28;20053;-64
2023/08/11 03:55:31;;;;;;;3.15;1.50;;;12.90;99.90;;;;;;5016778;28;20042;-65
2023/08/11 03:58:00;;;;;;;7.25;1.42;;;13.00;99.90;;;;;;5036547;28;20127;-66
2023/08/11 04:00:28;;;;;;;10.50;2.15;;;12.90;99.90;;;;;;5030680;28;20053;-67
2023/08/11 04:03:09;;;;;;;7.15;1.65;;;13.00;99.90;;;;;;5020754;28;20069;-64
2023/08/11 04:05:36;;;;;;;4.63;1.60;;;13.00;99.90;;;;;;5023171;28;20124;-65
2023/08/11 04:08:04;;;;;;;8.98;2.10;;;13.00;99.90;;;;;;5024243;28;20053;-66
2023/08/11 04:10:31;;;;;;;7.88;2.08;;;13.00;99.90;;;;;;5028447;28;20061;-67
2023/08/11 04:12:58;;;;;;;5.47;2.25;;;13.00;99.90;;;;;;5024605;28;20131;-68
2023/08/11 04:15:26;;;;;;;7.13;1.52;;;13.00;99.90;;;;;;5019247;28;20068;-68
2023/08/11 04:17:53;;;;;;;7.90;2.72;;;13.00;99.90;;;;;;5034636;28;20073;-64
2023/08/11 04:20:22;;;;;;;4.43;1.90;;;13.10;99.90;;;;;;5020246;28;20049;-62
2023/08/11 04:22:49;;;;;;;8.07;1.80;;;13.00;99.90;;;;;;5017082;28;20052;-64
2023/08/11 04:25:16;;;;;;;7.65;1.60;;;13.10;99.90;;;;;;5019272;28;20345;-63
2023/08/11 04:27:45;;;;;;;7.10;2.40;;;13.00;99.90;;;;;;5032938;28;20049;-67
2023/08/11 04:30:13;;;;;;;3.97;1.63;;;13.10;99.90;;;;;;5034412;28;20045;-64
2023/08/11 04:32:43;;;;;;;5.30;1.50;;;13.00;99.90;;;;;;5020667;28;20041;-62
2023/08/11 04:35:10;;;;;;;5.38;1.35;;;13.00;99.90;;;;;;5020131;28;20160;-61
2023/08/11 04:37:40;;;;;;;6.20;1.63;;;13.00;99.90;;;;;;5017288;28;20065;-68
2023/08/11 04:40:10;;;;;;;6.57;1.70;;;13.00;99.90;;;;;;5018654;28;20053;-66
2023/08/11 04:42:43;;;;;;;9.40;2.42;;;13.00;99.90;;;;;;5019874;28;20495;-64
2023/08/11 04:45:15;;;;;;;6.18;1.58;;;13.00;99.90;;;;;;5017958;28;20392;-64
2023/08/11 04:47:44;;;;;;;7.30;2.17;;;13.10;99.90;;;;;;5019436;28;20077;-66
2023/08/11 04:50:15;;;;;;;10.70;2.08;;;13.10;99.90;;;;;;5018141;28;20054;-65
2023/08/11 04:52:42;;;;;;;9.40;2.00;;;13.20;99.90;;;;;;5017277;28;20379;-62
2023/08/11 04:55:12;;;;;;;;;;;13.30;99.90;;;;;;5016786;28;20107;-67
2023/08/11 04:57:39;;;;;;;7.20;1.80;;;13.30;99.90;;;;;;5035898;28;20067;-63
2023/08/11 05:00:13;;;;;;;2.95;1.45;;;13.30;99.90;;;;;;5014335;28;20084;-65
2023/08/11 05:02:44;;;;;;;4.35;1.52;;;13.30;99.90;;;;;;5019029;28;20100;-66
2023/08/11 05:05:12;;;;;;;6.70;1.70;;;13.30;99.90;;;;;;5019200;28;20493;-65
2023/08/11 05:07:39;;;;;;;5.03;1.73;;;13.30;99.90;;;;;;5020359;28;20038;-65
2023/08/11 05:10:07;;;;;;;14.82;4.18;;;13.30;99.90;;;;;;5019879;28;20057;-63
2023/08/11 05:12:34;;;;;;;3.95;1.55;;;13.30;99.90;;;;;;5022042;28;20048;-63
2023/08/11 05:15:03;;;;;;;9.68;2.42;;;13.30;99.90;;;;;;5019966;28;20060;-63
2023/08/11 05:17:31;;;;;;;3.80;1.27;;;13.30;99.90;;;;;;5022068;28;20118;-65
2023/08/11 05:19:58;;;;;;;6.45;2.67;;;13.30;99.90;;;;;;5020309;28;20064;-66
2023/08/11 05:22:25;;;;;;;8.48;1.67;;;13.30;99.90;;;;;;5019979;28;20057;-62
2023/08/11 05:24:52;;;;;;;6.30;1.20;;;13.30;99.90;;;;;;5021363;28;20037;-65
2023/08/11 05:27:18;;;;;;;4.88;2.00;;;13.30;99.90;;;;;;5023479;28;20065;-63
2023/08/11 05:29:47;;;;;;;4.25;1.33;;;13.40;99.90;;;;;;5023984;28;20045;-66
2023/08/11 05:32:14;;;;;;;6.65;2.35;;;13.40;99.90;;;;;;5025817;28;20079;-66
2023/08/11 05:34:42;;;;;;;7.57;1.40;;;13.40;99.90;;;;;;5020784;28;20045;-62
2023/08/11 05:37:09;;;;;;;8.20;1.88;;;13.40;99.90;;;;;;5025433;28;20072;-64
2023/08/11 05:39:39;;;;;;;3.45;2.05;;;13.40;99.90;;;;;;5024156;28;20025;-65
2023/08/11 05:42:07;;;;;;;5.10;1.48;;;13.50;99.90;;;;;;5022852;28;20045;-65
2023/08/11 05:44:35;;;;;;;6.97;1.80;;;13.50;99.90;;;;;;5022868;28;20069;-67
2023/08/11 05:47:02;;;;;;;10.90;2.92;;;13.50;99.90;;;;;;5023197;28;20772;-65
2023/08/11 05:49:29;;;;;;;5.70;1.40;;;13.50;99.90;;;;;;5020787;28;20508;-62
2023/08/11 05:51:56;;;;;;;3.70;1.20;;;13.50;99.90;;;;;;5025328;28;20162;-64
2023/08/11 05:54:23;;;;;;;8.55;1.50;;;13.60;99.90;;;;;;5022675;28;20053;-68
2023/08/11 05:56:52;;;;;;;8.00;1.90;;;13.60;99.90;;;;;;5022173;28;20124;-63
2023/08/11 05:59:23;;;;;;;8.25;2.15;;;13.60;99.90;;;;;;5022284;28;20563;-67
2023/08/11 06:01:50;;;;;;;7.57;1.25;;;13.60;99.90;;;;;;5022257;28;20530;-63
2023/08/11 06:04:17;;;;;;;14.93;2.58;;;13.60;99.90;;;;;;5023885;28;20056;-62
2023/08/11 06:06:44;;;;;;;3.83;2.17;;;13.60;99.90;;;;;;5023102;28;20045;-68
2023/08/11 06:09:11;;;;;;;7.50;2.15;;;13.70;99.90;;;;;;5022078;28;20458;-62
2023/08/11 06:11:39;;;;;;;6.18;2.05;;;13.70;99.90;;;;;;5021345;28;20084;-63
2023/08/11 06:14:06;;;;;;;5.10;1.50;;;13.70;99.90;;;;;;5022114;28;20785;-69
2023/08/11 06:16:33;;;;;;;7.88;1.98;;;13.70;99.90;;;;;;5022792;28;20790;-62
2023/08/11 06:19:00;;;;;;;5.88;2.65;;;13.80;99.90;;;;;;5020246;28;20099;-67
2023/08/11 06:21:27;;;;;;;5.30;2.55;;;13.90;99.90;;;;;;5023129;28;20492;-66
2023/08/11 06:23:54;;;;;;;9.43;1.45;;;13.90;99.90;;;;;;5022864;28;20048;-66
2023/08/11 06:26:21;;;;;;;5.40;2.08;;;14.00;99.90;;;;;;5020322;28;20115;-66
2023/08/11 06:28:48;;;;;;;6.30;2.42;;;14.10;99.90;;;;;;5021139;28;20141;-64
2023/08/11 06:31:19;;;;;;;5.75;2.42;;;14.20;99.90;;;;;;5021692;28;20049;-64
2023/08/11 06:33:46;;;;;;;7.13;1.70;;;14.20;99.90;;;;;;5022155;28;20461;-66
2023/08/11 06:36:13;;;;;;;6.20;3.00;;;14.30;99.90;;;;;;5022483;28;21204;-65
2023/08/11 06:38:40;;;;;;;7.65;1.77;;;14.40;99.90;;;;;;5018911;28;20056;-65
2023/08/11 06:41:07;;;;;;;4.88;1.60;;;14.50;99.90;;;;;;5021129;28;20135;-65
2023/08/11 06:43:34;;;;;;;6.05;1.33;;;14.50;99.90;;;;;;5022439;28;20075;-62
2023/08/11 06:46:01;;;;;;;5.90;1.38;;;14.60;99.90;;;;;;5020769;28;20045;-68
2023/08/11 06:48:28;;;;;;;5.95;2.55;;;14.70;99.90;;;;;;5020517;28;20041;-64
2023/08/11 06:50:56;;;;;;;5.57;2.05;;;14.80;99.90;;;;;;5022205;28;20115;-68
2023/08/11 06:53:24;;;;;;;6.78;1.52;;;14.80;99.90;;;;;;5019708;28;20073;-65
2023/08/11 06:55:51;;;;;;;4.40;1.48;;;14.90;99.90;;;;;;5020331;28;20053;-64
2023/08/11 06:58:18;;;;;;;6.20;1.83;;;14.90;99.90;;;;;;5019830;28;20597;-63
2023/08/11 07:00:45;;;;;;;2.78;1.88;;;14.90;99.90;;;;;;5023266;28;20091;-65
2023/08/11 07:03:12;;;;;;;10.90;2.67;;;15.00;99.90;;;;;;5023691;28;20041;-65
2023/08/11 07:05:39;;;;;;;6.20;1.50;;;15.00;99.90;;;;;;5020957;28;20037;-65
2023/08/11 07:08:06;;;;;;;7.20;1.70;;;15.00;99.90;;;;;;5018453;28;20897;-63
2023/08/11 07:10:33;;;;;;;7.72;2.45;;;15.10;99.90;;;;;;5021800;28;20048;-63
2023/08/11 07:13:00;;;;;;;4.53;1.27;;;15.10;99.90;;;;;;5024368;28;20049;-66
2023/08/11 07:15:27;;;;;;;4.13;1.83;;;15.10;99.90;;;;;;5021332;28;20099;-66
2023/08/11 07:17:54;;;;;;;1.98;1.25;;;15.20;99.90;;;;;;5022031;28;20071;-66
2023/08/11 07:20:21;;;;;;;4.50;1.55;;;15.30;99.90;;;;;;5022149;28;20033;-68
2023/08/11 07:22:48;;;;;;;6.30;2.05;;;15.20;99.90;;;;;;5020691;28;20048;-63
2023/08/11 07:25:15;;;;;;;7.18;1.70;;;15.30;99.90;;;;;;5023870;28;20138;-66
2023/08/11 07:27:41;;;;;;;4.10;1.70;;;15.30;99.90;;;;;;5025006;28;20044;-64
2023/08/11 07:30:09;;;;;;;7.20;1.52;;;15.40;99.90;;;;;;5023389;28;20095;-62
2023/08/11 07:32:36;;;;;;;10.07;4.07;;;15.50;99.90;;;;;;5021936;28;20129;-66
2023/08/11 07:35:05;;;;;;;9.32;1.42;;;15.60;99.90;;;;;;5023887;28;20120;-65
2023/08/11 07:37:32;;;;;;;4.38;1.25;;;15.50;99.90;;;;;;5022259;28;20049;-66
2023/08/11 07:39:59;;;;;;;5.53;1.88;;;15.50;99.90;;;;;;5019788;28;20137;-64
2023/08/11 07:42:25;;;;;;;3.17;1.25;;;15.50;99.90;;;;;;5018167;28;20056;-65
2023/08/11 07:44:52;;;;;;;4.90;2.03;;;15.50;99.90;;;;;;5021906;28;20065;-62
2023/08/11 07:47:19;;;;;;;7.22;3.53;;;15.50;99.90;;;;;;5020380;28;20049;-66
2023/08/11 07:49:46;;;;;;;9.75;2.22;;;15.50;99.90;;;;;;5019162;28;20594;-62
2023/08/11 07:52:13;;;;;;;7.03;1.52;;;15.50;99.90;;;;;;5020959;28;20044;-68
2023/08/11 07:54:40;;;;;;;6.82;1.92;;;15.40;99.90;;;;;;5019456;28;20080;-67
2023/08/11 07:57:07;;;;;;;7.13;1.45;;;15.50;99.90;;;;;;5022859;28;20527;-63
2023/08/11 07:59:34;;;;;;;5.85;1.27;;;15.40;99.90;;;;;;5016918;28;20038;-63
2023/08/11 08:02:03;;;;;;;6.25;1.73;;;15.30;99.90;;;;;;5020814;28;20041;-63
2023/08/11 08:04:30;;;;;;;5.32;1.77;;;15.30;99.90;;;;;;5020651;28;20061;-68
2023/08/11 08:06:57;;;;;;;4.30;1.23;;;15.40;99.90;;;;;;5023189;28;20481;-66
2023/08/11 08:09:24;;;;;;;5.38;1.30;;;15.40;99.90;;;;;;5018884;28;20859;-65
2023/08/11 08:11:51;;;;;;;4.82;1.40;;;15.50;99.90;;;;;;5017475;28;20069;-67
2023/08/11 08:14:18;;;;;;;6.50;1.98;;;15.50;99.90;;;;;;5019954;28;20049;-62
2023/08/11 08:16:45;;;;;;;5.93;1.75;;;15.60;99.90;;;;;;5018251;28;20037;-63
2023/08/11 08:19:14;;;;;;;6.85;1.38;;;15.60;99.90;;;;;;5021638;28;20042;-66
2023/08/11 08:21:42;;;;;;;2.80;0.80;;;15.60;99.90;;;;;;5019231;28;20033;-64
2023/08/11 08:24:09;;;;;;;6.38;1.92;;;15.70;99.90;;;;;;5020181;28;20095;-62
2023/08/11 08:26:36;;;;;;;2.83;1.25;;;15.70;99.90;;;;;;5018598;28;20120;-68
2023/08/11 08:29:03;;;;;;;7.05;2.13;;;15.80;99.90;;;;;;5021073;28;20096;-62
2023/08/11 08:31:30;;;;;;;3.35;1.00;;;15.80;99.90;;;;;;5020532;28;20590;-63
2023/08/11 08:33:58;;;;;;;2.88;1.10;;;16.00;99.90;;;;;;5020208;28;20072;-65
2023/08/11 08:36:25;;;;;;;7.20;2.28;;;16.10;99.90;;;;;;5020951;28;20049;-64
2023/08/11 08:38:52;;;;;;;2.05;0.75;;;16.10;99.90;;;;;;5020611;28;20104;-66
2023/08/11 08:41:23;;;;;;;5.15;1.60;;;16.20;99.90;;;;;;5018712;28;20158;-62
2023/08/11 08:43:53;;;;;;;5.60;1.23;;;16.30;99.90;;;;;;5019482;28;20057;-65
2023/08/11 08:46:25;;;;;;;5.20;1.48;;;16.40;99.90;;;;;;5019803;28;20085;-65
2023/08/11 08:49:07;;;;;;;6.70;1.42;;;16.50;99.90;;;;;;5017860;28;20052;-63
2023/08/11 08:51:37;;;;;;;6.63;2.70;;;16.50;99.90;;;;;;5021987;28;20136;-63
2023/08/11 08:54:05;;;;;;;3.45;1.25;;;16.40;99.90;;;;;;5023959;28;20073;-67
2023/08/11 08:56:32;;;;;;;15.02;1.88;;;16.40;99.90;;;;;;5025915;28;20041;-66
2023/08/11 08:58:59;;;;;;;5.28;1.60;;;16.50;99.90;;;;;;5023853;28;20065;-64
2023/08/11 09:01:26;;;;;;;4.95;1.35;;;16.50;99.90;;;;;;5023033;28;20463;-64
2023/08/11 09:03:53;;;;;;;6.25;1.80;;;16.50;99.90;;;;;;5022021;28;20049;-63
2023/08/11 09:06:21;;;;;;;3.72;1.08;;;16.60;99.90;;;;;;5023484;28;20060;-65
2023/08/11 09:08:48;;;;;;;9.82;1.70;;;16.70;99.90;;;;;;5019563;28;20077;-62
2023/08/11 09:11:15;;;;;;;5.32;1.00;;;16.60;99.90;;;;;;5020719;28;20136;-62
2023/08/11 09:13:44;;;;;;;5.47;1.42;;;16.60;99.90;;;;;;5026018;28;20072;-70
2023/08/11 09:16:15;;;;;;;6.18;1.63;;;16.50;99.90;;;;;;5023719;28;20046;-63
2023/08/11 09:18:45;;;;;;;;;;;16.40;99.90;;;;;;5025825;28;20036;-64
2023/08/11 09:21:12;;;;;;;5.30;1.53;;;16.40;99.90;;;;;;5021147;28;19921;-69
2023/08/11 09:23:39;;;;;;;3.92;1.60;;;16.30;99.90;;;;;;5019961;28;20313;-65
2023/08/11 09:26:06;;;;;;;3.30;0.77;;;16.30;99.90;;;;;;5024347;28;20045;-62
2023/08/11 09:28:33;;;;;;;5.63;1.90;;;16.20;99.90;;;;;;5022267;28;20049;-68
2023/08/11 09:31:00;;;;;;;4.18;1.33;;;16.30;99.90;;;;;;5025173;28;20050;-69
2023/08/11 09:33:28;;;;;;;4.03;1.08;;;16.30;99.90;;;;;;5022521;28;20079;-64
2023/08/11 09:35:55;;;;;;;3.83;1.85;;;16.30;99.90;;;;;;5022872;28;20183;-65
2023/08/11 09:38:25;;;;;;;5.18;1.08;;;16.40;99.90;;;;;;5023106;28;20029;-66
2023/08/11 09:40:51;;;;;;;6.80;3.20;;;16.50;99.90;;;;;;5021579;28;20678;-67
2023/08/11 09:43:18;;;;;;;5.35;1.58;;;16.60;99.90;;;;;;5020331;28;20628;-64
2023/08/11 09:45:45;;;;;;;9.15;3.30;;;16.70;99.90;;;;;;5022455;28;20529;-62
2023/08/11 09:48:12;;;;;;;10.23;2.20;;;16.80;99.90;;;;;;5023468;28;20037;-67
2023/08/11 09:50:40;;;;;;;5.95;1.30;;;16.70;99.90;;;;;;5022020;28;20079;-66
2023/08/11 09:53:08;;;;;;;5.07;1.50;;;16.80;99.90;;;;;;5023871;28;20046;-68
2023/08/11 09:55:36;;;;;;;3.95;1.30;;;16.70;99.90;;;;;;5020946;28;20095;-69
2023/08/11 09:58:04;;;;;;;15.25;2.45;;;16.70;99.90;;;;;;5023467;28;20769;-66
2023/08/11 10:00:31;;;;;;;13.40;2.08;;;16.70;99.90;;;;;;5024808;28;20065;-64
2023/08/11 10:03:04;;;;;;;3.65;1.27;;;16.70;99.90;;;;;;5020259;28;20153;-68
2023/08/11 10:05:37;;;;;;;2.88;1.48;;;16.70;99.90;;;;;;5021958;28;20123;-66
2023/08/11 10:08:06;;;;;;;5.15;1.08;;;16.80;99.90;;;;;;5021682;28;20432;-68
2023/08/11 10:10:36;;;;;;;12.55;1.90;;;16.90;99.90;;;;;;5022844;28;20060;-67
2023/08/11 10:13:07;;;;;;;6.80;3.45;;;17.00;99.90;;;;;;5023791;28;20065;-65
2023/08/11 10:15:35;;;;;;;3.42;1.40;;;17.10;99.90;;;;;;5020451;28;20037;-64
2023/08/11 10:18:02;;;;;;;9.90;2.00;;;17.10;99.90;;;;;;5019877;28;20046;-67
2023/08/11 10:20:30;;;;;;;5.32;1.67;;;17.10;99.90;;;;;;5023344;28;20045;-66
2023/08/11 10:22:57;;;;;;;7.78;1.90;;;17.00;99.90;;;;;;5021375;28;20056;-63
2023/08/11 10:25:26;;;;;;;5.60;1.83;;;17.10;99.90;;;;;;5024646;28;20563;-66
2023/08/11 10:27:54;;;;;;;6.35;1.40;;;17.20;99.90;;;;;;5021886;28;20484;-65
2023/08/11 10:30:22;;;;;;;5.53;1.92;;;17.20;99.90;;;;;;5023040;28;20133;-62
2023/08/11 10:33:02;;;;;;;5.10;1.20;;;17.40;99.90;;;;;;5021747;28;20446;-63
2023/08/11 10:35:35;;;;;;;4.88;1.25;;;17.50;99.90;;;;;;5023464;28;20091;-64
2023/08/11 10:38:04;;;;;;;3.42;1.05;;;17.80;99.90;;;;;;5021690;28;20795;-67
2023/08/11 10:40:37;;;;;;;4.47;1.13;;;17.80;99.90;;;;;;5019586;28;20069;-66
2023/08/11 10:43:04;;;;;;;6.82;1.83;;;17.80;99.90;;;;;;5022835;28;20127;-70
2023/08/11 10:45:36;;;;;;;4.55;1.27;;;17.80;99.90;;;;;;5024725;28;20049;-65
2023/08/11 10:48:08;;;;;;;3.15;1.33;;;17.80;99.90;;;;;;5019945;28;20095;-62
2023/08/11 10:50:38;;;;;;;5.47;2.05;;;17.80;99.90;;;;;;5018322;28;20069;-68
2023/08/11 10:53:19;;;;;;;4.75;1.48;;;17.70;99.90;;;;;;5018640;28;20038;-62
2023/08/11 10:56:00;;;;;;;2.45;1.35;;;17.70;99.90;;;;;;5021135;28;20049;-65
2023/08/11 10:58:30;;;;;;;4.95;1.25;;;17.70;99.90;;;;;;5022387;28;20046;-65
2023/08/11 11:01:00;;;;;;;5.22;1.05;;;17.60;99.90;;;;;;5019444;28;20042;-65
2023/08/11 11:03:27;;;;;;;3.10;1.30;;;17.70;99.90;;;;;;5022552;28;20045;-68
2023/08/11 11:05:54;;;;;;;1.02;0.60;;;17.70;99.90;;;;;;5020510;28;20091;-65
2023/08/11 11:08:20;;;;;;;4.43;2.75;;;17.60;99.90;;;;;;5021333;28;20119;-66
2023/08/11 11:10:47;;;;;;;3.30;1.40;;;17.60;99.90;;;;;;5021292;28;20034;-68
2023/08/11 11:13:17;;;;;;;7.60;1.20;;;17.50;99.90;;;;;;5022862;28;20111;-66
2023/08/11 11:15:44;;;;;;;3.75;1.20;;;17.50;99.90;;;;;;5022758;28;20045;-67
2023/08/11 11:18:11;;;;;;;2.17;0.95;;;17.50;99.90;;;;;;5019068;28;20695;-67
2023/08/11 11:20:38;;;;;;;4.35;1.55;;;17.60;99.90;;;;;;5019412;28;20534;-62
2023/08/11 11:23:05;;;;;;;8.00;1.67;;;17.60;99.90;;;;;;5019317;28;20160;-63
2023/08/11 11:25:32;;;;;;;5.70;1.75;;;17.60;99.90;;;;;;5021961;28;20215;-67
2023/08/11 11:27:59;;;;;;;7.20;2.28;;;17.60;99.90;;;;;;5021355;28;20038;-63
2023/08/11 11:30:26;;;;;;;5.05;1.60;;;17.60;99.90;;;;;;5022718;28;20236;-65
2023/08/11 11:32:54;;;;;;;5.95;1.42;;;17.70;99.90;;;;;;5018889;28;20454;-65
2023/08/11 11:35:23;;;;;;;3.72;1.45;;;17.70;99.90;;;;;;5022294;28;20039;-67
2023/08/11 11:37:51;;;;;;;3.53;1.45;;;17.80;99.90;;;;;;5020633;28;20037;-63
2023/08/11 11:40:18;;;;;;;7.68;1.20;;;17.90;99.90;;;;;;5022065;28;20639;-66
2023/08/11 11:42:47;;;;;;;3.35;1.15;;;18.00;99.90;;;;;;5022397;28;20033;-67
2023/08/11 11:45:14;;;;;;;5.43;1.20;;;18.10;99.90;;;;;;5020907;28;20411;-65
2023/08/11 11:47:42;;;;;;;3.25;1.80;;;18.10;99.90;;;;;;5020121;28;20091;-62
2023/08/11 11:50:09;;;;;;;1.50;0.90;;;18.10;99.90;;;;;;5021533;28;20057;-64
2023/08/11 11:52:36;;;;;;;2.38;0.80;;;18.10;99.90;;;;;;5019681;28;20046;-69
2023/08/11 11:55:05;;;;;;;5.97;1.52;;;18.10;99.90;;;;;;5019494;28;20682;-64
2023/08/11 11:57:33;;;;;;;6.13;1.23;;;18.10;99.90;;;;;;5023217;28;20095;-64
2023/08/11 12:00:03;;;;;;;9.85;1.83;;;18.20;99.90;;;;;;5024678;28;20054;-68
2023/08/11 12:02:40;;;;;;;3.67;1.42;;;18.60;99.90;;;;;;5017361;28;20041;-63
2023/08/11 12:05:08;;;;;;;4.82;1.17;;;18.90;99.90;;;;;;5020919;28;20095;-64
2023/08/11 12:07:36;;;;;;;4.32;2.05;;;19.10;99.90;;;;;;5017231;28;20525;-65
2023/08/11 12:10:06;;;;;;;4.72;1.15;;;19.20;99.90;;;;;;5019918;28;20747;-63
2023/08/11 12:12:33;;;;;;;4.28;0.90;;;19.20;99.90;;;;;;5022334;28;20520;-68
2023/08/11 12:15:02;;;;;;;8.57;1.58;;;19.50;99.90;;;;;;5017944;28;20044;-63
2023/08/11 12:17:31;;;;;;;6.70;0.95;;;19.40;99.90;;;;;;5019193;28;20080;-65
2023/08/11 12:20:03;;;;;;;1.80;1.02;;;19.30;99.90;;;;;;5019983;28;20111;-67
2023/08/11 12:22:30;;;;;;;2.15;0.70;;;19.30;99.90;;;;;;5019198;28;20092;-67
2023/08/11 12:24:57;;;;;;;2.35;0.80;;;19.30;99.90;;;;;;5021983;28;20095;-63
2023/08/11 12:27:25;;;;;;;2.15;0.80;;;19.50;99.90;;;;;;5027831;28;20468;-66
2023/08/11 12:29:52;;;;;;;2.17;0.85;;;19.30;99.90;;;;;;5024231;28;20119;-64
2023/08/11 12:32:19;;;;;;;7.38;1.08;;;19.10;99.90;;;;;;5028340;28;20053;-66
2023/08/11 12:34:45;;;;;;;4.65;1.63;;;19.10;99.90;;;;;;5027073;28;20041;-62
2023/08/11 12:37:14;;;;;;;4.55;0.98;;;19.10;99.90;;;;;;5024665;28;20045;-63
2023/08/11 12:39:41;;;;;;;3.35;1.23;;;19.10;99.90;;;;;;5024822;28;20042;-64
2023/08/11 12:42:09;;;;;;;2.33;0.60;;;19.10;99.90;;;;;;5024004;28;20053;-67
2023/08/11 12:44:38;;;;;;;8.75;1.92;;;19.10;99.90;;;;;;5022743;28;20069;-65
2023/08/11 12:47:06;;;;;;;5.47;0.90;;;19.10;99.90;;;;;;5023647;28;20052;-64
2023/08/11 12:49:33;;;;;;;2.85;0.75;;;19.00;99.90;;;;;;5022987;28;20060;-64
2023/08/11 12:52:00;;;;;;;5.55;1.17;;;18.80;99.90;;;;;;5021323;28;20216;-67
2023/08/11 12:54:27;;;;;;;1.90;0.80;;;18.70;99.90;;;;;;5021311;28;20069;-67